createdAt,value
2022-12-27T00:00:39.121Z,109.50
2022-12-27T00:03:07.614Z,98.55
2022-12-27T00:05:35.881Z,99.20
2022-12-27T00:08:05.777Z,94.10
2022-12-27T00:10:34.595Z,101.65
2022-12-27T00:13:02.966Z,93.30
2022-12-27T00:15:31.182Z,79.60
2022-12-27T00:17:59.601Z,90.72
2022-12-27T00:20:28.015Z,85.25
2022-12-27T00:22:56.223Z,85.68
2022-12-27T00:25:25.876Z,85.55
2022-12-27T00:27:54.154Z,80.40
2022-12-27T00:30:22.461Z,70.90
2022-12-27T00:32:50.726Z,75.65
2022-12-27T00:35:19.089Z,92.85
2022-12-27T00:37:47.389Z,91.05
2022-12-27T00:40:15.600Z,100.35
2022-12-27T00:42:45.216Z,104.30
2022-12-27T00:45:13.412Z,105.32
2022-12-27T00:47:41.732Z,99.93
2022-12-27T00:50:10.543Z,102.32
2022-12-27T00:52:38.709Z,94.68
2022-12-27T00:55:09.223Z,85.82
2022-12-27T00:57:37.474Z,93.85
2022-12-27T01:00:10.527Z,89.45
2022-12-27T01:02:39.280Z,87.03
2022-12-27T01:05:08.382Z,83.28
2022-12-27T01:07:36.680Z,95.97
2022-12-27T01:10:05.763Z,84.97
2022-12-27T01:12:35.480Z,88.68
2022-12-27T01:15:04.342Z,90.15
2022-12-27T01:17:34.025Z,83.20
2022-12-27T01:20:03.512Z,84.10
2022-12-27T01:22:31.827Z,88.10
2022-12-27T01:25:00.101Z,83.88
2022-12-27T01:27:28.427Z,80.35
2022-12-27T01:29:56.572Z,86.05
2022-12-27T01:32:24.807Z,111.68
2022-12-27T01:34:54.651Z,93.80
2022-12-27T01:37:23.005Z,95.28
2022-12-27T01:39:51.376Z,91.32
2022-12-27T01:42:38.185Z,86.88
2022-12-27T01:45:15.150Z,89.55
2022-12-27T01:47:51.675Z,91.55
2022-12-27T01:50:26.684Z,89.43
2022-12-27T01:53:01.455Z,93.15
2022-12-27T01:55:35.024Z,102.00
2022-12-27T01:58:08.150Z,95.95
2022-12-27T02:00:36.942Z,102.43
2022-12-27T02:03:07.246Z,103.78
2022-12-27T02:05:41.734Z,109.95
2022-12-27T02:08:28.628Z,105.78
2022-12-27T02:10:58.577Z,110.10
2022-12-27T02:13:28.506Z,104.70
2022-12-27T02:15:56.756Z,115.35
2022-12-27T02:18:25.114Z,109.45
2022-12-27T02:21:25.189Z,106.82
2022-12-27T02:24:15.776Z,102.88
2022-12-27T02:26:52.084Z,112.82
2022-12-27T02:29:40.589Z,112.57
2022-12-27T02:32:13.147Z,110.03
2022-12-27T02:34:53.353Z,99.47
2022-12-27T02:37:24.774Z,95.40
2022-12-27T02:39:53.660Z,108.95
2022-12-27T02:42:51.460Z,104.28
2022-12-27T02:45:43.132Z,102.68
2022-12-27T02:48:33.706Z,108.95
2022-12-27T02:51:31.114Z,105.60
2022-12-27T02:54:09.077Z,109.38
2022-12-27T02:57:05.732Z,119.22
2022-12-27T03:00:03.437Z,121.50
2022-12-27T03:03:01.758Z,120.00
2022-12-27T03:05:42.881Z,118.60
2022-12-27T03:08:18.634Z,124.50
2022-12-27T03:11:07.564Z,119.90
2022-12-27T03:14:02.892Z,127.47
2022-12-27T03:16:37.920Z,112.55
2022-12-27T03:19:14.070Z,124.53
2022-12-27T03:22:05.745Z,129.90
2022-12-27T03:24:56.497Z,118.40
2022-12-27T03:27:30.132Z,113.07
2022-12-27T03:30:17.944Z,120.28
2022-12-27T03:33:08.477Z,115.57
2022-12-27T03:35:42.853Z,121.00
2022-12-27T03:38:14.098Z,123.00
2022-12-27T03:41:07.654Z,119.07
2022-12-27T03:43:38.084Z,123.03
2022-12-27T03:46:35.652Z,121.07
2022-12-27T03:49:16.761Z,120.18
2022-12-27T03:51:51.927Z,117.15
2022-12-27T03:54:26.645Z,111.55
2022-12-27T03:56:57.427Z,116.05
2022-12-27T03:59:27.444Z,129.40
2022-12-27T04:01:56.519Z,129.18
2022-12-27T04:04:25.011Z,124.40
2022-12-27T04:06:54.573Z,125.60
2022-12-27T04:09:40.425Z,121.72
2022-12-27T04:12:26.154Z,127.30
2022-12-27T04:15:12.209Z,128.93
2022-12-27T04:17:57.484Z,130.90
2022-12-27T04:20:43.785Z,133.50
2022-12-27T04:23:31.119Z,126.30
2022-12-27T04:26:16.643Z,137.45
2022-12-27T04:29:02.182Z,127.95
2022-12-27T04:31:48.304Z,119.60
2022-12-27T04:34:33.827Z,123.22
2022-12-27T04:37:02.121Z,131.95
2022-12-27T04:39:31.891Z,119.40
2022-12-27T04:42:17.883Z,131.60
2022-12-27T04:45:00.421Z,127.80
2022-12-27T04:47:57.476Z,125.32
2022-12-27T04:50:45.946Z,131.35
2022-12-27T04:53:36.114Z,121.38
2022-12-27T04:56:07.033Z,121.00
2022-12-27T04:58:35.759Z,130.45
2022-12-27T05:01:23.514Z,129.88
2022-12-27T05:03:54.014Z,132.70
2022-12-27T05:06:22.326Z,135.98
2022-12-27T05:09:08.303Z,123.97
2022-12-27T05:11:55.612Z,133.63
2022-12-27T05:14:23.861Z,130.20
2022-12-27T05:16:52.149Z,138.38
2022-12-27T05:19:20.477Z,126.57
2022-12-27T05:22:03.144Z,127.82
2022-12-27T05:24:49.275Z,124.05
2022-12-27T05:27:19.072Z,121.55
2022-12-27T05:29:47.918Z,125.00
2022-12-27T05:32:16.110Z,112.85
2022-12-27T05:34:44.274Z,108.68
2022-12-27T05:37:12.545Z,113.43
2022-12-27T05:39:40.801Z,111.13
2022-12-27T05:42:09.016Z,124.95
2022-12-27T05:44:38.694Z,129.32
2022-12-27T05:47:06.897Z,130.27
2022-12-27T05:49:35.287Z,122.43
2022-12-27T05:52:03.505Z,120.82
2022-12-27T05:54:31.737Z,116.35
2022-12-27T05:56:59.949Z,120.57
2022-12-27T05:59:28.208Z,120.40
2022-12-27T06:01:57.914Z,128.02
2022-12-27T06:04:26.267Z,122.53
2022-12-27T06:06:54.426Z,125.53
2022-12-27T06:09:22.745Z,124.70
2022-12-27T06:11:50.907Z,120.47
2022-12-27T06:14:19.164Z,117.97
2022-12-27T06:16:47.428Z,110.32
2022-12-27T06:19:17.208Z,111.15
2022-12-27T06:21:45.515Z,119.50
2022-12-27T06:24:13.733Z,126.18
2022-12-27T06:26:42.886Z,124.40
2022-12-27T06:29:12.942Z,141.90
2022-12-27T06:31:41.545Z,124.07
2022-12-27T06:34:11.516Z,128.15
2022-12-27T06:36:41.051Z,138.98
2022-12-27T06:39:09.336Z,126.38
2022-12-27T06:41:37.488Z,126.68
2022-12-27T06:44:06.104Z,135.15
2022-12-27T06:46:34.233Z,116.05
2022-12-27T06:49:03.631Z,121.28
2022-12-27T06:51:31.854Z,122.00
2022-12-27T06:54:01.458Z,126.93
2022-12-27T06:56:29.690Z,122.47
2022-12-27T06:58:57.972Z,122.10
2022-12-27T07:01:28.154Z,134.23
2022-12-27T07:03:58.588Z,127.00
2022-12-27T07:06:28.835Z,121.63
2022-12-27T07:08:57.837Z,127.47
2022-12-27T07:11:27.503Z,120.40
2022-12-27T07:13:56.978Z,113.20
2022-12-27T07:16:27.289Z,120.40
2022-12-27T07:18:57.130Z,121.63
2022-12-27T07:21:27.409Z,109.72
2022-12-27T07:23:56.491Z,113.28
2022-12-27T07:26:26.963Z,119.03
2022-12-27T07:28:57.253Z,102.13
2022-12-27T07:31:29.747Z,104.68
2022-12-27T07:33:59.039Z,101.05
2022-12-27T07:36:30.941Z,98.30
2022-12-27T07:38:59.104Z,94.65
2022-12-27T07:41:27.473Z,89.20
2022-12-27T07:43:57.448Z,96.90
2022-12-27T07:46:27.393Z,101.82
2022-12-27T07:48:56.813Z,91.60
2022-12-27T07:51:26.327Z,100.93
2022-12-27T07:53:55.187Z,90.50
2022-12-27T07:56:26.649Z,93.97
2022-12-27T07:58:57.972Z,97.68
2022-12-27T08:01:28.126Z,101.68
2022-12-27T08:03:56.787Z,108.40
2022-12-27T08:06:28.962Z,103.75
2022-12-27T08:08:58.997Z,124.68
2022-12-27T08:11:27.605Z,108.30
2022-12-27T08:13:57.318Z,117.30
2022-12-27T08:16:27.127Z,103.78
2022-12-27T08:18:56.022Z,102.72
2022-12-27T08:21:24.703Z,84.53
2022-12-27T08:23:52.874Z,91.63
2022-12-27T08:26:21.741Z,67.55
2022-12-27T08:28:49.959Z,85.53
2022-12-27T08:31:19.902Z,85.65
2022-12-27T08:33:48.079Z,77.85
2022-12-27T08:39:07.367Z,75.70
2022-12-27T08:41:35.645Z,81.35
2022-12-27T08:44:04.006Z,89.05
2022-12-27T08:46:33.709Z,82.55
2022-12-27T08:49:02.197Z,81.88
2022-12-27T08:51:38.705Z,78.13
2022-12-27T08:54:09.318Z,86.15
2022-12-27T08:56:37.612Z,80.20
2022-12-27T08:59:06.334Z,81.63
2022-12-27T09:01:36.087Z,87.25
2022-12-27T09:04:04.510Z,80.43
2022-12-27T09:06:33.042Z,77.20
2022-12-27T09:09:01.541Z,83.78
2022-12-27T09:11:32.409Z,98.40
2022-12-27T09:14:02.168Z,81.95
2022-12-27T09:16:31.583Z,80.95
2022-12-27T09:19:01.504Z,90.00
2022-12-27T09:21:31.970Z,81.97
2022-12-27T09:24:00.266Z,78.35
2022-12-27T09:26:31.195Z,66.95
2022-12-27T09:29:00.051Z,71.60
2022-12-27T09:31:28.940Z,57.08
2022-12-27T09:33:57.843Z,59.92
2022-12-27T09:36:29.884Z,58.50
2022-12-27T09:38:59.367Z,87.13
2022-12-27T09:42:44.505Z,84.40
2022-12-27T09:44:33.391Z,87.70
2022-12-27T09:47:07.349Z,88.17
2022-12-27T09:49:40.450Z,82.13
2022-12-27T09:52:15.902Z,91.10
2022-12-27T09:54:59.482Z,85.07
2022-12-27T09:57:37.268Z,82.13
2022-12-27T10:00:08.468Z,85.63
2022-12-27T10:02:37.388Z,78.67
2022-12-27T10:05:20.177Z,81.97
2022-12-27T10:08:03.542Z,78.13
2022-12-27T10:10:43.404Z,85.10
2022-12-27T10:13:24.078Z,86.80
2022-12-27T10:16:04.204Z,80.27
2022-12-27T10:18:43.768Z,90.33
2022-12-27T10:21:20.681Z,87.73
2022-12-27T10:23:55.799Z,94.27
2022-12-27T10:26:24.779Z,87.60
2022-12-27T10:28:57.600Z,84.47
2022-12-27T10:31:27.430Z,87.80
2022-12-27T10:33:57.956Z,85.07
2022-12-27T10:36:28.502Z,88.90
2022-12-27T10:38:58.345Z,71.10
2022-12-27T10:41:37.229Z,62.33
2022-12-27T10:44:11.597Z,63.80
2022-12-27T10:46:40.578Z,57.77
2022-12-27T10:49:22.254Z,63.13
2022-12-27T10:51:52.447Z,61.47
2022-12-27T10:54:25.331Z,57.80
2022-12-27T10:56:54.335Z,49.13
2022-12-27T10:59:24.878Z,46.93
2022-12-27T11:02:16.404Z,42.70
2022-12-27T11:04:58.170Z,44.70
2022-12-27T11:07:31.826Z,37.67
2022-12-27T11:10:15.723Z,38.77
2022-12-27T11:13:00.019Z,33.33
2022-12-27T11:15:30.030Z,33.53
2022-12-27T11:18:01.470Z,49.50
2022-12-27T11:20:32.121Z,58.07
2022-12-27T11:23:05.010Z,44.50
2022-12-27T11:25:36.195Z,39.93
2022-12-27T11:28:07.844Z,40.13
2022-12-27T11:30:39.066Z,43.40
2022-12-27T11:33:24.360Z,43.27
2022-12-27T11:35:55.629Z,53.20
2022-12-27T11:38:26.689Z,55.40
2022-12-27T11:41:03.435Z,52.97
2022-12-27T11:43:37.249Z,46.30
2022-12-27T11:46:11.811Z,42.93
2022-12-27T11:48:43.659Z,52.43
2022-12-27T11:51:39.131Z,54.00
2022-12-27T11:54:30.841Z,56.50
2022-12-27T11:57:15.793Z,54.07
2022-12-27T11:59:59.627Z,56.50
2022-12-27T12:02:34.816Z,57.50
2022-12-27T12:05:27.223Z,56.50
2022-12-27T12:08:07.857Z,57.87
2022-12-27T12:10:45.398Z,51.80
2022-12-27T12:13:35.385Z,58.50
2022-12-27T12:16:48.370Z,53.93
2022-12-27T12:19:31.918Z,46.90
2022-12-27T12:22:18.739Z,36.10
2022-12-27T12:25:02.848Z,44.23
2022-12-27T12:27:47.019Z,39.90
2022-12-27T12:30:49.652Z,35.17
2022-12-27T12:33:35.354Z,36.70
2022-12-27T12:36:29.307Z,46.97
2022-12-27T12:39:03.967Z,46.03
2022-12-27T12:42:01.769Z,40.33
2022-12-27T12:45:16.475Z,52.93
2022-12-27T12:48:19.958Z,49.83
2022-12-27T12:51:23.493Z,46.03
2022-12-27T12:54:23.259Z,43.47
2022-12-27T12:57:10.579Z,54.60
2022-12-27T13:00:09.261Z,47.70
2022-12-27T13:03:40.386Z,43.83
2022-12-27T13:06:21.465Z,42.93
2022-12-27T13:08:58.308Z,42.30
2022-12-27T13:11:39.112Z,39.80
2022-12-27T13:14:22.955Z,38.17
2022-12-27T13:16:59.821Z,39.27
2022-12-27T13:19:45.302Z,31.60
2022-12-27T13:22:23.086Z,16.00
2022-12-27T13:25:07.341Z,15.73
2022-12-27T13:27:43.140Z,9.73
2022-12-27T13:30:20.889Z,12.83
2022-12-27T13:33:16.475Z,7.73
2022-12-27T13:36:00.716Z,7.00
2022-12-27T13:38:44.911Z,8.90
2022-12-27T13:41:30.103Z,10.70
2022-12-27T13:44:28.629Z,7.80
2022-12-27T13:47:21.994Z,6.80
2022-12-27T13:50:04.775Z,8.35
2022-12-27T13:53:00.375Z,9.10
2022-12-27T13:55:48.618Z,10.73
2022-12-27T13:58:56.224Z,16.88
2022-12-27T14:01:50.063Z,10.85
2022-12-27T14:04:43.937Z,7.63
2022-12-27T14:07:43.679Z,8.40
2022-12-27T14:10:22.913Z,10.65
2022-12-27T14:13:03.215Z,11.70
2022-12-27T14:16:09.518Z,18.95
2022-12-27T14:18:52.924Z,20.40
2022-12-27T14:21:46.882Z,14.02
2022-12-27T14:24:37.022Z,10.07
2022-12-27T14:27:54.350Z,9.50
2022-12-27T14:31:04.832Z,8.20
2022-12-27T14:33:56.612Z,11.38
2022-12-27T14:37:06.952Z,7.75
2022-12-27T14:40:07.216Z,7.50
2022-12-27T14:42:58.558Z,12.18
2022-12-27T14:46:12.980Z,8.80
2022-12-27T14:49:17.888Z,10.40
2022-12-27T14:52:33.595Z,12.45
2022-12-27T14:55:47.106Z,12.20
2022-12-27T14:58:38.654Z,8.60
2022-12-27T15:01:17.743Z,7.85
2022-12-27T15:03:55.446Z,7.57
2022-12-27T15:06:48.728Z,8.35
2022-12-27T15:09:25.704Z,8.05
2022-12-27T15:12:08.336Z,10.25
2022-12-27T15:15:02.762Z,8.07
2022-12-27T15:17:51.436Z,7.70
2022-12-27T15:20:41.824Z,8.23
2022-12-27T15:23:22.185Z,8.02
2022-12-27T15:26:02.778Z,7.45
2022-12-27T15:28:47.827Z,9.35
2022-12-27T15:31:28.573Z,7.80
2022-12-27T15:34:12.367Z,7.45
2022-12-27T15:36:42.881Z,5.95
2022-12-27T15:39:44.484Z,6.15
2022-12-27T15:42:39.665Z,11.75
2022-12-27T15:45:27.218Z,8.73
2022-12-27T15:48:23.990Z,5.50
2022-12-27T15:50:59.870Z,6.25
2022-12-27T15:53:37.925Z,7.00
2022-12-27T15:56:23.920Z,6.22
2022-12-27T15:59:29.432Z,9.55
2022-12-27T16:02:42.333Z,8.32
2022-12-27T16:05:36.973Z,8.13
2022-12-27T16:08:39.691Z,10.20
2022-12-27T16:11:11.729Z,10.95
2022-12-27T16:13:46.232Z,9.93
2022-12-27T16:16:57.109Z,7.72
2022-12-27T16:19:50.687Z,17.80
2022-12-27T16:22:30.594Z,8.98
2022-12-27T16:25:14.418Z,6.85
2022-12-27T16:27:44.501Z,8.10
2022-12-27T16:30:14.132Z,9.45
2022-12-27T16:32:50.127Z,6.80
2022-12-27T16:35:18.696Z,6.20
2022-12-27T16:37:54.124Z,6.35
2022-12-27T16:40:39.317Z,5.15
2022-12-27T16:43:46.642Z,7.57
2022-12-27T16:46:59.615Z,5.80
2022-12-27T16:50:03.187Z,4.20
2022-12-27T16:52:53.620Z,6.63
2022-12-27T16:55:48.960Z,5.25
2022-12-27T16:58:23.438Z,5.28
2022-12-27T17:00:52.699Z,6.93
2022-12-27T17:03:44.488Z,5.22
2022-12-27T17:06:54.397Z,4.90
2022-12-27T17:09:43.667Z,5.10
2022-12-27T17:12:24.758Z,5.35
2022-12-27T17:15:01.005Z,5.72
2022-12-27T17:17:30.062Z,4.85
2022-12-27T17:20:03.334Z,6.53
2022-12-27T17:22:35.207Z,6.40
2022-12-27T17:25:04.955Z,5.45
2022-12-27T17:27:48.173Z,5.45
2022-12-27T17:30:21.831Z,5.18
2022-12-27T17:33:29.395Z,6.97
2022-12-27T17:36:18.000Z,8.38
2022-12-27T17:38:58.556Z,8.13
2022-12-27T17:41:55.825Z,11.80
2022-12-27T17:44:41.097Z,11.88
2022-12-27T17:47:37.115Z,13.15
2022-12-27T17:50:08.031Z,11.30
2022-12-27T17:52:53.750Z,10.38
2022-12-27T17:55:42.748Z,8.90
2022-12-27T17:58:13.063Z,8.18
2022-12-27T18:00:53.885Z,6.93
2022-12-27T18:03:23.421Z,9.15
2022-12-27T18:05:51.667Z,8.05
2022-12-27T18:08:29.073Z,6.20
2022-12-27T18:10:59.591Z,5.85
2022-12-27T18:13:31.081Z,6.25
2022-12-27T18:16:02.917Z,14.88
2022-12-27T18:18:34.386Z,14.73
2022-12-27T18:21:04.267Z,12.07
2022-12-27T18:23:41.793Z,14.48
2022-12-27T18:26:13.778Z,10.07
2022-12-27T18:28:43.629Z,11.32
2022-12-27T18:31:19.078Z,10.93
2022-12-27T18:33:51.369Z,9.18
2022-12-27T18:36:27.121Z,12.60
2022-12-27T18:39:00.067Z,7.28
2022-12-27T18:41:35.011Z,6.38
2022-12-27T18:44:05.507Z,5.93
2022-12-27T18:46:38.903Z,9.15
2022-12-27T18:49:07.355Z,8.18
2022-12-27T18:51:38.462Z,6.72
2022-12-27T18:54:23.152Z,8.43
2022-12-27T18:56:53.402Z,6.22
2022-12-27T18:59:26.061Z,6.07
2022-12-27T19:01:57.241Z,6.13
2022-12-27T19:04:27.649Z,7.90
2022-12-27T19:07:06.275Z,7.88
2022-12-27T19:09:38.610Z,12.98
2022-12-27T19:12:10.637Z,13.05
2022-12-27T19:14:44.386Z,7.90
2022-12-27T19:17:20.682Z,12.63
2022-12-27T19:19:52.009Z,7.93
2022-12-27T19:22:45.161Z,7.80
2022-12-27T19:25:32.560Z,7.25
2022-12-27T19:28:03.702Z,8.85
2022-12-27T19:30:39.343Z,6.45
2022-12-27T19:33:14.175Z,6.70
2022-12-27T19:35:43.679Z,8.85
2022-12-27T19:38:20.640Z,6.65
2022-12-27T19:40:52.081Z,9.95
2022-12-27T19:43:22.531Z,12.23
2022-12-27T19:45:50.807Z,9.70
2022-12-27T19:48:20.447Z,8.48
2022-12-27T19:50:50.818Z,8.98
2022-12-27T19:53:23.455Z,8.35
2022-12-27T19:55:51.747Z,8.95
2022-12-27T19:58:23.383Z,7.88
2022-12-27T20:00:51.572Z,13.73
2022-12-27T20:03:21.346Z,11.52
2022-12-27T20:06:14.985Z,6.25
2022-12-27T20:08:40.707Z,6.90
2022-12-27T20:11:14.246Z,8.18
2022-12-27T20:13:42.741Z,6.68
2022-12-27T20:16:12.188Z,8.00
2022-12-27T20:18:42.505Z,11.13
2022-12-27T20:21:13.277Z,6.75
2022-12-27T20:23:41.574Z,8.48
2022-12-27T20:26:10.514Z,13.02
2022-12-27T20:28:38.961Z,11.32
2022-12-27T20:31:07.786Z,7.22
2022-12-27T20:33:36.157Z,9.70
2022-12-27T20:36:06.461Z,7.35
2022-12-27T20:38:34.647Z,8.40
2022-12-27T20:41:07.456Z,9.35
2022-12-27T20:43:35.735Z,8.93
2022-12-27T20:46:07.676Z,7.30
2022-12-27T20:48:38.189Z,13.10
2022-12-27T20:51:09.309Z,9.63
2022-12-27T20:53:37.989Z,9.60
2022-12-27T20:56:08.893Z,10.40
2022-12-27T20:58:37.424Z,8.50
2022-12-27T21:01:09.689Z,10.52
2022-12-27T21:03:38.833Z,9.88
2022-12-27T21:06:10.657Z,12.38
2022-12-27T21:08:46.664Z,16.33
2022-12-27T21:11:19.998Z,16.77
2022-12-27T21:13:49.006Z,12.15
2022-12-27T21:16:18.502Z,14.30
2022-12-27T21:18:48.345Z,10.68
2022-12-27T21:21:20.182Z,21.08
2022-12-27T21:23:49.586Z,14.70
2022-12-27T21:26:19.921Z,17.67
2022-12-27T21:28:49.301Z,15.95
2022-12-27T21:31:18.643Z,18.35
2022-12-27T21:33:47.505Z,14.23
2022-12-27T21:36:18.846Z,15.00
2022-12-27T21:38:47.477Z,14.23
2022-12-27T21:41:17.574Z,11.85
2022-12-27T21:43:47.456Z,13.00
2022-12-27T21:46:17.600Z,12.60
2022-12-27T21:48:47.012Z,14.00
2022-12-27T21:51:18.231Z,28.70
2022-12-27T21:53:47.147Z,12.10
2022-12-27T21:56:16.584Z,12.93
2022-12-27T21:58:45.920Z,13.35
2022-12-27T22:01:17.891Z,16.00
2022-12-27T22:03:49.032Z,11.68
2022-12-27T22:06:20.930Z,11.25
2022-12-27T22:08:51.131Z,12.85
2022-12-27T22:11:20.759Z,13.77
2022-12-27T22:13:49.375Z,15.10
2022-12-27T22:16:19.573Z,12.27
2022-12-27T22:18:48.728Z,16.33
2022-12-27T22:21:20.987Z,19.20
2022-12-27T22:23:51.423Z,17.10
2022-12-27T22:26:21.675Z,14.32
2022-12-27T22:28:50.446Z,13.48
2022-12-27T22:31:20.596Z,22.48
2022-12-27T22:33:49.647Z,20.27
2022-12-27T22:36:21.043Z,23.90
2022-12-27T22:38:50.378Z,25.73
2022-12-27T22:41:20.613Z,16.30
2022-12-27T22:43:52.312Z,15.13
2022-12-27T22:46:21.231Z,17.88
2022-12-27T22:48:53.608Z,16.90
2022-12-27T22:51:25.902Z,14.32
2022-12-27T22:53:55.437Z,15.07
2022-12-27T22:56:25.800Z,14.30
2022-12-27T22:58:54.200Z,13.90
2022-12-27T23:01:24.558Z,16.25
2022-12-27T23:03:52.749Z,13.98
2022-12-27T23:06:23.013Z,11.38
2022-12-27T23:08:51.448Z,13.15
2022-12-27T23:11:22.061Z,10.50
2022-12-27T23:13:56.169Z,13.23
2022-12-27T23:16:24.850Z,14.00
2022-12-27T23:18:53.535Z,10.80
2022-12-27T23:21:24.794Z,11.07
2022-12-27T23:23:53.638Z,12.50
2022-12-27T23:26:23.958Z,11.52
2022-12-27T23:28:53.532Z,12.35
2022-12-27T23:31:23.944Z,13.90
2022-12-27T23:33:52.912Z,12.63
2022-12-27T23:36:23.407Z,11.55
2022-12-27T23:38:51.919Z,13.15
2022-12-27T23:41:21.982Z,14.02
2022-12-27T23:43:53.776Z,14.23
2022-12-27T23:46:25.213Z,13.95
2022-12-27T23:48:54.096Z,12.98
2022-12-27T23:51:25.520Z,13.27
2022-12-27T23:53:54.012Z,12.80
2022-12-27T23:56:24.568Z,11.55
2022-12-27T23:58:55.279Z,13.45
